Time;durP1;ratioP1;P1;durP2;ratioP2;P2;SDS_P1;SDS_P2;PMS_P1;PMS_P2;Temp;Humidity;BMP_temperature;BMP_pressure;BME280_temperature;BME280_humidity;BME280_pressure;Samples;Min_cycle;Max_cycle;Signal;HPM_P1;HPM_P2
2022/08/09 00:01:09;;;;;;;;;;;;;;;26.94;71.30;99935.66;5059707;28;20392;-52
2022/08/09 00:03:34;;;;;;;;;;;;;;;27.06;69.46;99937.25;5065149;28;20281;-50
2022/08/09 00:06:00;;;;;;;;;;;;;;;26.74;71.60;99938.19;5054177;28;20486;-49
2022/08/09 00:08:25;;;;;;;;;;;;;;;26.43;72.74;99939.91;5059571;28;19944;-52
2022/08/09 00:10:50;;;;;;;;;;;;;;;26.92;70.76;99944.56;5053978;28;19969;-50
2022/08/09 00:13:15;;;;;;;;;;;;;;;26.69;70.79;99946.53;5067821;28;19919;-50
2022/08/09 00:15:41;;;;;;;;;;;;;;;26.61;70.08;99943.66;5057122;28;19924;-49
2022/08/09 00:18:06;;;;;;;;;;;;;;;26.61;69.69;99948.13;5060386;28;19917;-51
2022/08/09 00:20:31;;;;;;;;;;;;;;;26.92;70.27;99941.91;5056986;28;19960;-48
2022/08/09 00:22:56;;;;;;;;;;;;;;;26.73;71.29;99947.13;5059426;28;20453;-48
2022/08/09 00:25:22;;;;;;;;;;;;;;;26.59;71.19;99940.31;5052919;28;20622;-51
2022/08/09 00:27:47;;;;;;;;;;;;;;;26.50;72.44;99951.63;5056570;28;20389;-50
2022/08/09 00:30:12;;;;;;;;;;;;;;;26.77;72.37;99942.38;5062391;28;20281;-51
2022/08/09 00:32:38;;;;;;;;;;;;;;;26.77;71.02;99937.09;5066509;28;20341;-52
2022/08/09 00:35:04;;;;;;;;;;;;;;;26.74;72.77;99937.38;5071237;28;20432;-48
2022/08/09 00:37:29;;;;;;;;;;;;;;;26.85;71.34;99942.59;5065517;28;19916;-51
2022/08/09 00:39:54;;;;;;;;;;;;;;;26.31;74.51;99936.47;5060693;28;19932;-52
2022/08/09 00:42:20;;;;;;;;;;;;;;;26.55;73.72;99933.63;5066712;28;20015;-48
2022/08/09 00:44:45;;;;;;;;;;;;;;;25.67;75.73;99938.09;5060534;28;19920;-50
2022/08/09 00:47:10;;;;;;;;;;;;;;;26.07;75.94;99934.06;5057252;28;20381;-52
2022/08/09 00:49:35;;;;;;;;;;;;;;;26.08;74.25;99933.09;5061407;28;20331;-51
2022/08/09 00:52:01;;;;;;;;;;;;;;;26.02;74.92;99933.59;5062247;28;20674;-48
2022/08/09 00:54:26;;;;;;;;;;;;;;;25.91;74.78;99934.50;5060362;28;19971;-50
2022/08/09 00:56:51;;;;;;;;;;;;;;;26.21;75.09;99935.56;5063462;28;19924;-50
2022/08/09 00:59:16;;;;;;;;;;;;;;;26.47;73.86;99936.88;5055996;28;19959;-52
2022/08/09 01:01:42;;;;;;;;;;;;;;;26.31;73.00;99936.47;5061974;28;19922;-51
2022/08/09 01:04:12;;;;;;;;;;;;;;;26.25;75.24;99940.47;5060230;28;19942;-48
2022/08/09 01:06:47;;;;;;;;;;;;;;;26.00;76.50;99944.28;5064675;28;20421;-48
2022/08/09 01:09:34;;;;;;;;;;;;;;;25.94;73.44;99943.94;5054046;28;20041;-51
2022/08/09 01:12:00;;;;;;;;;;;;;;;25.76;76.91;99951.50;5061150;28;19921;-51
2022/08/09 01:14:27;;;;;;;;;;;;;;;25.36;78.90;99955.53;5058845;28;19928;-48
2022/08/09 01:16:54;;;;;;;;;;;;;;;25.35;78.04;99959.09;5068082;28;20194;-51
2022/08/09 01:19:38;;;;;;;;;;;;;;;25.34;78.23;99952.16;5060805;28;19920;-49
2022/08/09 01:22:21;;;;;;;;;;;;;;;25.40;76.74;99951.66;5055486;28;19951;-49
2022/08/09 01:24:55;;;;;;;;;;;;;;;25.30;79.48;99945.44;5064026;28;19927;-51
2022/08/09 01:27:22;;;;;;;;;;;;;;;25.10;79.98;99949.59;5057628;28;19928;-50
2022/08/09 01:29:48;;;;;;;;;;;;;;;25.59;80.60;99945.78;5064233;28;19920;-50
2022/08/09 01:32:14;;;;;;;;;;;;;;;25.29;80.81;99949.03;5065750;28;19943;-49
2022/08/09 01:34:40;;;;;;;;;;;;;;;24.84;80.94;99944.56;5064970;28;19970;-50
2022/08/09 01:37:06;;;;;;;;;;;;;;;24.15;84.15;99952.34;5061170;28;19917;-48
2022/08/09 01:39:34;;;;;;;;;;;;;;;24.75;86.03;99953.16;5055013;28;20007;-49
2022/08/09 01:41:59;;;;;;;;;;;;;;;24.25;87.01;99949.03;5043965;28;19920;-50
2022/08/09 01:44:24;;;;;;;;;;;;;;;24.27;86.82;99952.34;5060257;28;20431;-51
2022/08/09 01:46:49;;;;;;;;;;;;;;;25.29;83.38;99946.41;5066082;28;20353;-51
2022/08/09 01:49:15;;;;;;;;;;;;;;;25.39;81.23;99943.91;5064401;28;20200;-51
2022/08/09 01:51:42;;;;;;;;;;;;;;;24.40;84.78;99950.50;5062337;28;19916;-50
2022/08/09 01:54:07;;;;;;;;;;;;;;;24.06;88.13;99955.59;5059403;28;19927;-52
2022/08/09 01:56:33;;;;;;;;;;;;;;;23.58;89.87;99952.91;5064447;28;19920;-49
2022/08/09 01:58:59;;;;;;;;;;;;;;;24.48;89.11;99942.91;5061238;28;19920;-48
2022/08/09 02:01:24;;;;;;;;;;;;;;;23.85;91.48;99944.03;5062393;28;19927;-50
2022/08/09 02:03:50;;;;;;;;;;;;;;;24.44;88.17;99951.94;5061569;28;19920;-49
2022/08/09 02:06:15;;;;;;;;;;;;;;;24.89;87.08;99946.84;5059666;28;19920;-51
2022/08/09 02:08:41;;;;;;;;;;;;;;;24.97;86.25;99956.78;5064434;28;19953;-51
2022/08/09 02:11:07;;;;;;;;;;;;;;;24.69;83.53;99944.88;5056010;28;20386;-50
2022/08/09 02:13:32;;;;;;;;;;;;;;;24.80;87.10;99952.81;5056292;28;19927;-49
2022/08/09 02:15:57;;;;;;;;;;;;;;;23.94;88.35;99959.13;5058720;28;19924;-48
2022/08/09 02:18:23;;;;;;;;;;;;;;;23.69;88.99;99960.03;5056654;28;19946;-49
2022/08/09 02:20:50;;;;;;;;;;;;;;;23.82;92.26;99954.78;5063564;28;19923;-51
2022/08/09 02:23:20;;;;;;;;;;;;;;;23.25;95.54;99966.63;5065027;28;20015;-48
2022/08/09 02:25:46;;;;;;;;;;;;;;;23.33;95.00;99965.16;5052830;28;20484;-51
2022/08/09 02:28:34;;;;;;;;;;;;;;;23.82;94.33;99960.03;5060214;28;20014;-50
2022/08/09 02:31:10;;;;;;;;;;;;;;;23.67;96.21;99965.38;5056278;28;19921;-49
2022/08/09 02:33:37;;;;;;;;;;;;;;;23.53;95.38;99955.03;5060924;28;19999;-50
2022/08/09 02:36:02;;;;;;;;;;;;;;;23.44;96.80;99955.66;5067679;28;19935;-50
2022/08/09 02:38:29;;;;;;;;;;;;;;;23.30;96.14;99960.09;5065320;28;20305;-50
2022/08/09 02:40:56;;;;;;;;;;;;;;;23.15;95.21;99961.19;5056613;28;19920;-51
2022/08/09 02:43:22;;;;;;;;;;;;;;;23.95;94.65;99955.56;5052829;28;19924;-51
2022/08/09 02:45:47;;;;;;;;;;;;;;;23.97;92.93;99951.88;5062161;28;20585;-50
2022/08/09 02:48:13;;;;;;;;;;;;;;;23.17;97.15;99954.88;5060040;28;20027;-50
2022/08/09 02:50:40;;;;;;;;;;;;;;;23.98;92.01;99939.56;5053201;28;19924;-51
2022/08/09 02:53:08;;;;;;;;;;;;;;;23.54;93.83;99947.03;5058209;28;19990;-48
2022/08/09 02:55:34;;;;;;;;;;;;;;;22.66;96.50;99946.09;5058744;28;19942;-50
2022/08/09 02:57:59;;;;;;;;;;;;;;;21.87;100.00;99960.81;5055133;28;20354;-49
2022/08/09 03:00:24;;;;;;;;;;;;;;;22.94;100.00;99943.28;5057942;28;20449;-47
2022/08/09 03:02:51;;;;;;;;;;;;;;;23.17;100.00;99940.88;5056412;28;19965;-50
2022/08/09 03:05:16;;;;;;;;;;;;;;;22.74;99.07;99943.81;5054014;28;19984;-48
2022/08/09 03:07:41;;;;;;;;;;;;;;;22.71;100.00;99947.44;5055900;28;19974;-48
2022/08/09 03:10:07;;;;;;;;;;;;;;;23.47;97.02;99931.78;5062280;28;20039;-50
2022/08/09 03:12:33;;;;;;;;;;;;;;;23.76;95.72;99933.19;5060317;28;19936;-50
2022/08/09 03:14:58;;;;;;;;;;;;;;;24.31;93.80;99935.38;5061453;28;19927;-48
2022/08/09 03:17:24;;;;;;;;;;;;;;;23.78;94.92;99936.56;5064795;28;19923;-48
2022/08/09 03:19:49;;;;;;;;;;;;;;;24.29;91.09;99932.88;5058188;28;19920;-50
2022/08/09 03:22:14;;;;;;;;;;;;;;;24.31;91.77;99940.66;5060084;28;19920;-52
2022/08/09 03:24:40;;;;;;;;;;;;;;;24.41;90.63;99945.13;5053666;28;20022;-48
2022/08/09 03:27:05;;;;;;;;;;;;;;;23.84;91.21;99939.72;5059619;28;19924;-50
2022/08/09 03:29:31;;;;;;;;;;;;;;;23.20;94.52;99947.72;5055228;28;20866;-47
2022/08/09 03:31:56;;;;;;;;;;;;;;;22.86;96.42;99958.72;5054391;28;19970;-50
2022/08/09 03:34:21;;;;;;;;;;;;;;;23.44;92.79;99935.47;5068769;28;20435;-47
2022/08/09 03:36:46;;;;;;;;;;;;;;;23.93;92.43;99936.44;5064460;28;20460;-47
2022/08/09 03:39:11;;;;;;;;;;;;;;;24.11;89.35;99940.34;5063585;28;19927;-50
2022/08/09 03:41:37;;;;;;;;;;;;;;;24.05;90.56;99938.16;5064997;28;19924;-48
2022/08/09 03:44:02;;;;;;;;;;;;;;;23.87;89.72;99935.06;5057201;28;19920;-48
2022/08/09 03:46:27;;;;;;;;;;;;;;;23.44;92.19;99937.28;5056307;28;19920;-48
2022/08/09 03:48:53;;;;;;;;;;;;;;;22.38;94.65;99947.94;5059339;28;21008;-48
2022/08/09 03:51:23;;;;;;;;;;;;;;;22.44;99.49;99944.91;5059103;28;19919;-52
2022/08/09 03:53:48;;;;;;;;;;;;;;;23.02;95.46;99944.56;5062306;28;19920;-52
2022/08/09 03:56:13;;;;;;;;;;;;;;;23.09;94.83;99945.84;5059676;28;20785;-51
2022/08/09 03:58:38;;;;;;;;;;;;;;;23.09;94.94;99945.84;5057501;28;20018;-51
2022/08/09 04:01:03;;;;;;;;;;;;;;;23.63;93.24;99939.41;5057653;28;20440;-48
2022/08/09 04:03:29;;;;;;;;;;;;;;;23.75;92.38;99944.69;5062856;28;19931;-46
2022/08/09 04:05:54;;;;;;;;;;;;;;;23.73;92.02;99941.28;5053941;28;19917;-47
2022/08/09 04:08:19;;;;;;;;;;;;;;;23.30;92.12;99944.31;5064417;28;19920;-49
2022/08/09 04:10:44;;;;;;;;;;;;;;;23.70;93.00;99956.47;5064589;28;20102;-48
2022/08/09 04:13:10;;;;;;;;;;;;;;;23.75;92.25;99949.94;5064607;28;19970;-48
2022/08/09 04:15:36;;;;;;;;;;;;;;;23.87;91.24;99957.91;5063096;28;19917;-49
2022/08/09 04:18:01;;;;;;;;;;;;;;;23.89;91.09;99956.84;5064165;28;20339;-48
2022/08/09 04:20:26;;;;;;;;;;;;;;;24.01;90.56;99958.56;5058039;28;19921;-50
2022/08/09 04:22:52;;;;;;;;;;;;;;;24.04;90.88;99959.31;5061287;28;20030;-47
2022/08/09 04:25:17;;;;;;;;;;;;;;;23.81;89.96;99953.91;5057530;28;19920;-49
2022/08/09 04:27:42;;;;;;;;;;;;;;;23.86;90.87;99961.50;5067093;28;19927;-52
2022/08/09 04:30:09;;;;;;;;;;;;;;;23.42;91.65;99960.19;5056798;28;19927;-48
2022/08/09 04:32:34;;;;;;;;;;;;;;;23.12;94.22;99964.00;5067501;28;19920;-49
2022/08/09 04:34:59;;;;;;;;;;;;;;;23.15;95.52;99963.81;5063254;28;20691;-49
2022/08/09 04:37:24;;;;;;;;;;;;;;;23.52;93.70;99964.69;5063876;28;20308;-50
2022/08/09 04:39:50;;;;;;;;;;;;;;;23.46;94.31;99974.81;5055366;28;20294;-49
2022/08/09 04:42:15;;;;;;;;;;;;;;;23.74;93.43;99971.94;5061571;28;20462;-49
2022/08/09 04:44:41;;;;;;;;;;;;;;;24.08;92.02;99969.50;5057884;28;19963;-49
2022/08/09 04:47:06;;;;;;;;;;;;;;;24.05;89.73;99961.84;5061696;28;19920;-50
2022/08/09 04:49:32;;;;;;;;;;;;;;;23.20;95.78;99974.84;5058484;28;20003;-51
2022/08/09 04:51:58;;;;;;;;;;;;;;;23.25;95.71;99980.63;5064068;28;19970;-50
2022/08/09 04:54:23;;;;;;;;;;;;;;;23.16;95.92;99979.44;5062521;28;19920;-50
2022/08/09 04:56:48;;;;;;;;;;;;;;;23.28;93.24;99972.50;5065968;28;20349;-50
2022/08/09 04:59:13;;;;;;;;;;;;;;;23.62;95.15;99969.31;5055628;28;19959;-49
2022/08/09 05:01:38;;;;;;;;;;;;;;;23.33;97.75;99978.31;5060797;28;20483;-49
2022/08/09 05:04:04;;;;;;;;;;;;;;;23.78;93.14;99969.94;5056086;28;21045;-51
2022/08/09 05:06:29;;;;;;;;;;;;;;;24.03;92.87;99966.38;5062050;28;20370;-51
2022/08/09 05:08:55;;;;;;;;;;;;;;;24.47;93.90;99971.94;5064517;28;20330;-50
2022/08/09 05:11:20;;;;;;;;;;;;;;;24.20;89.62;99971.25;5063565;28;20615;-52
2022/08/09 05:13:46;;;;;;;;;;;;;;;24.01;92.74;99981.41;5059985;28;19920;-47
2022/08/09 05:16:11;;;;;;;;;;;;;;;24.33;94.99;99980.88;5065994;28;19924;-48
2022/08/09 05:18:37;;;;;;;;;;;;;;;24.33;91.32;99975.59;5059471;28;19917;-48
2022/08/09 05:21:02;;;;;;;;;;;;;;;24.93;92.54;99984.31;5063324;28;19978;-49
2022/08/09 05:23:27;;;;;;;;;;;;;;;25.13;91.85;99985.44;5067894;28;20726;-51
2022/08/09 05:25:52;;;;;;;;;;;;;;;25.13;91.68;99990.69;5055987;28;19919;-49
2022/08/09 05:28:18;;;;;;;;;;;;;;;25.25;91.67;99989.81;5058947;28;19926;-48
2022/08/09 05:30:44;;;;;;;;;;;;;;;25.44;90.90;99989.19;5063606;28;20680;-51
2022/08/09 05:33:09;;;;;;;;;;;;;;;24.97;92.23;99997.13;5059933;28;19916;-50
2022/08/09 05:35:34;;;;;;;;;;;;;;;25.46;91.53;99990.75;5056375;28;19938;-51
2022/08/09 05:37:59;;;;;;;;;;;;;;;25.74;90.90;99990.38;5063913;28;19920;-49
2022/08/09 05:40:27;;;;;;;;;;;;;;;26.00;89.76;99988.31;5060845;28;19924;-50
2022/08/09 05:42:52;;;;;;;;;;;;;;;25.83;87.08;99984.34;5061307;28;19921;-48
2022/08/09 05:45:18;;;;;;;;;;;;;;;24.63;90.79;99991.81;5061433;28;19913;-51
2022/08/09 05:47:43;;;;;;;;;;;;;;;25.11;94.14;99997.88;5062689;28;19924;-51
2022/08/09 05:50:08;;;;;;;;;;;;;;;25.45;91.09;99990.88;5059466;28;19921;-51
2022/08/09 05:52:34;;;;;;;;;;;;;;;25.77;89.62;99985.72;5058758;28;19920;-49
2022/08/09 05:54:59;;;;;;;;;;;;;;;26.05;90.09;99978.25;5057627;28;19927;-50
2022/08/09 05:57:24;;;;;;;;;;;;;;;25.57;85.35;99979.38;5059430;28;19951;-53
2022/08/09 05:59:49;;;;;;;;;;;;;;;25.47;89.52;99978.41;5060564;28;20447;-52
2022/08/09 06:02:15;;;;;;;;;;;;;;;26.38;88.37;99979.06;5062727;28;20394;-48
2022/08/09 06:04:40;;;;;;;;;;;;;;;25.92;83.71;99972.25;5063116;28;19975;-49
2022/08/09 06:07:05;;;;;;;;;;;;;;;24.19;93.56;100000.31;5057298;28;20592;-51
2022/08/09 06:09:31;;;;;;;;;;;;;;;25.38;89.25;99990.50;5056439;28;20346;-52
2022/08/09 06:11:56;;;;;;;;;;;;;;;25.59;90.88;99995.91;5067235;28;19916;-51
2022/08/09 06:14:22;;;;;;;;;;;;;;;26.08;89.52;99991.19;5055253;28;19923;-51
2022/08/09 06:16:47;;;;;;;;;;;;;;;24.67;94.64;100005.56;5057283;28;19912;-52
2022/08/09 06:19:13;;;;;;;;;;;;;;;25.85;87.38;99988.56;5058336;28;19926;-52
2022/08/09 06:21:39;;;;;;;;;;;;;;;26.63;86.35;99989.31;5065804;28;19930;-51
2022/08/09 06:24:04;;;;;;;;;;;;;;;26.10;89.40;99997.16;5056735;28;19916;-50
2022/08/09 06:26:29;;;;;;;;;;;;;;;26.53;88.06;99987.53;5037454;28;20014;-52
2022/08/09 06:28:55;;;;;;;;;;;;;;;27.19;86.60;99984.66;5055486;28;19924;-52
2022/08/09 06:31:20;;;;;;;;;;;;;;;27.31;84.85;99988.91;5058113;28;21051;-50
2022/08/09 06:33:45;;;;;;;;;;;;;;;27.64;81.80;99989.56;5057262;28;19924;-52
2022/08/09 06:36:11;;;;;;;;;;;;;;;26.43;86.81;99992.72;5061522;28;20396;-51
2022/08/09 06:38:36;;;;;;;;;;;;;;;26.60;86.11;99997.50;5058549;28;20007;-50
2022/08/09 06:41:01;;;;;;;;;;;;;;;26.96;86.56;99995.38;5056582;28;19963;-54
2022/08/09 06:43:27;;;;;;;;;;;;;;;27.59;81.69;99991.78;5060385;28;20029;-52
2022/08/09 06:45:52;;;;;;;;;;;;;;;26.50;87.12;100004.47;5056952;28;20771;-52
2022/08/09 06:48:18;;;;;;;;;;;;;;;27.44;84.00;99994.81;5063642;28;19979;-50
2022/08/09 06:50:43;;;;;;;;;;;;;;;26.68;85.60;100002.97;5063477;28;19975;-49
2022/08/09 06:53:09;;;;;;;;;;;;;;;27.20;86.87;99997.75;5053203;28;19917;-51
2022/08/09 06:55:34;;;;;;;;;;;;;;;27.11;85.20;100002.00;5062646;28;19931;-52
2022/08/09 06:57:59;;;;;;;;;;;;;;;28.16;80.97;99996.41;5053987;28;20652;-52
2022/08/09 07:00:25;;;;;;;;;;;;;;;28.20;81.46;99996.97;5061815;28;19919;-52
2022/08/09 07:02:50;;;;;;;;;;;;;;;27.45;82.66;100009.69;5056391;28;19921;-51
2022/08/09 07:05:16;;;;;;;;;;;;;;;27.06;82.58;99996.25;5052559;28;20479;-48
2022/08/09 07:07:41;;;;;;;;;;;;;;;27.38;84.86;100010.38;5057676;28;19931;-51
2022/08/09 07:10:06;;;;;;;;;;;;;;;27.44;81.79;100009.84;5066452;28;20701;-49
2022/08/09 07:12:32;;;;;;;;;;;;;;;26.63;86.87;100010.44;5062871;28;20712;-49
2022/08/09 07:14:57;;;;;;;;;;;;;;;26.79;85.16;100011.81;5058418;28;20289;-53
2022/08/09 07:17:22;;;;;;;;;;;;;;;27.20;84.26;100010.13;5059527;28;19943;-48
2022/08/09 07:19:48;;;;;;;;;;;;;;;28.07;80.38;100012.28;5059185;28;19932;-52
2022/08/09 07:22:14;;;;;;;;;;;;;;;27.86;81.88;100010.56;5061112;28;19920;-50
2022/08/09 07:24:39;;;;;;;;;;;;;;;27.82;79.59;100009.13;5058965;28;19921;-50
2022/08/09 07:27:05;;;;;;;;;;;;;;;27.07;83.65;100013.81;5066483;28;19977;-49
2022/08/09 07:29:30;;;;;;;;;;;;;;;27.82;82.28;100009.13;5058023;28;19920;-51
2022/08/09 07:31:56;;;;;;;;;;;;;;;27.32;82.69;100017.00;5055133;28;19927;-52
2022/08/09 07:34:22;;;;;;;;;;;;;;;26.84;84.82;100023.66;5068255;28;19927;-49
2022/08/09 07:36:48;;;;;;;;;;;;;;;27.07;84.03;100015.59;5056377;28;19920;-50
2022/08/09 07:39:13;;;;;;;;;;;;;;;28.11;80.88;100019.00;5061137;28;19916;-51
2022/08/09 07:41:38;;;;;;;;;;;;;;;27.01;79.04;100022.25;5061200;28;19933;-48
2022/08/09 07:44:03;;;;;;;;;;;;;;;26.09;86.52;100040.34;5066902;28;19920;-51
2022/08/09 07:46:28;;;;;;;;;;;;;;;26.19;87.41;100038.66;5062852;28;19916;-49
2022/08/09 07:48:54;;;;;;;;;;;;;;;25.95;90.10;100045.91;5060509;28;19920;-49
2022/08/09 07:51:19;;;;;;;;;;;;;;;26.23;90.33;100034.00;5056811;28;19920;-51
2022/08/09 07:53:45;;;;;;;;;;;;;;;26.35;85.75;100032.97;5062501;28;19923;-49
2022/08/09 07:56:10;;;;;;;;;;;;;;;28.03;82.34;100016.19;5063984;28;19917;-52
2022/08/09 07:58:35;;;;;;;;;;;;;;;27.49;82.32;100024.34;5064541;28;19920;-52
2022/08/09 08:01:00;;;;;;;;;;;;;;;27.71;81.29;100017.19;5056160;28;20372;-51
2022/08/09 08:03:26;;;;;;;;;;;;;;;27.00;82.27;100027.66;5064909;28;19920;-52
2022/08/09 08:05:51;;;;;;;;;;;;;;;27.77;82.45;100011.34;5058205;28;19920;-51
2022/08/09 08:08:16;;;;;;;;;;;;;;;27.94;80.28;100016.03;5067240;28;19920;-53
2022/08/09 08:10:42;;;;;;;;;;;;;;;27.02;82.32;100036.31;5059927;28;20293;-51
2022/08/09 08:13:07;;;;;;;;;;;;;;;27.83;83.08;100029.34;5060894;28;19920;-53
2022/08/09 08:15:32;;;;;;;;;;;;;;;29.03;80.23;100034.47;5060427;28;19961;-51
2022/08/09 08:17:58;;;;;;;;;;;;;;;27.80;81.47;100032.25;5052769;28;19978;-50
2022/08/09 08:20:24;;;;;;;;;;;;;;;27.86;83.52;100031.75;5065784;28;19920;-52
2022/08/09 08:22:49;;;;;;;;;;;;;;;28.34;78.65;100031.00;5068155;28;19946;-52
2022/08/09 08:25:15;;;;;;;;;;;;;;;28.06;84.07;100037.09;5059867;28;19942;-54
2022/08/09 08:27:40;;;;;;;;;;;;;;;28.24;81.89;100027.50;5059659;28;19962;-50
2022/08/09 08:30:06;;;;;;;;;;;;;;;29.71;75.38;100034.31;5044798;28;20305;-49
2022/08/09 08:32:31;;;;;;;;;;;;;;;28.00;79.37;100027.03;5061506;28;19951;-53
2022/08/09 08:34:57;;;;;;;;;;;;;;;28.29;78.82;100037.69;5062437;28;19920;-53
2022/08/09 08:37:22;;;;;;;;;;;;;;;28.91;72.63;100027.66;5064386;28;19963;-49
2022/08/09 08:39:48;;;;;;;;;;;;;;;28.54;73.23;100020.44;5062620;28;20426;-51
2022/08/09 08:42:13;;;;;;;;;;;;;;;29.33;72.08;100022.00;5064918;28;19923;-51
2022/08/09 08:44:39;;;;;;;;;;;;;;;29.00;74.24;100026.81;5059503;28;20062;-50
2022/08/09 08:47:04;;;;;;;;;;;;;;;29.09;74.35;100020.69;5064103;28;19924;-52
2022/08/09 08:49:31;;;;;;;;;;;;;;;29.74;73.48;100036.69;5065103;28;19916;-52
2022/08/09 08:51:56;;;;;;;;;;;;;;;28.16;75.75;100033.47;5062819;28;19921;-53
2022/08/09 08:54:21;;;;;;;;;;;;;;;28.87;75.54;100029.75;5055498;28;20401;-53
2022/08/09 08:56:47;;;;;;;;;;;;;;;28.08;75.44;100032.50;5065057;28;19955;-54
2022/08/09 08:59:12;;;;;;;;;;;;;;;29.13;71.57;100031.84;5060515;28;19952;-53
2022/08/09 09:01:39;;;;;;;;;;;;;;;29.06;74.72;100031.56;5059710;28;19947;-52
2022/08/09 09:04:07;;;;;;;;;;;;;;;29.64;70.81;100027.06;5060185;28;20369;-52
2022/08/09 09:06:34;;;;;;;;;;;;;;;29.25;71.12;100027.22;5062265;28;19912;-50
2022/08/09 09:08:59;;;;;;;;;;;;;;;29.30;72.77;100032.91;5058396;28;19920;-53
2022/08/09 09:11:25;;;;;;;;;;;;;;;29.99;68.41;100028.97;5062135;28;19943;-52
2022/08/09 09:13:51;;;;;;;;;;;;;;;30.00;66.53;100030.66;5056704;28;19920;-53
2022/08/09 09:16:16;;;;;;;;;;;;;;;28.42;72.38;100034.75;5063526;28;19923;-52
2022/08/09 09:18:41;;;;;;;;;;;;;;;29.37;70.11;100034.00;5058794;28;19953;-52
2022/08/09 09:21:07;;;;;;;;;;;;;;;29.49;70.03;100032.00;5060861;28;19920;-54
2022/08/09 09:23:50;;;;;;;;;;;;;;;29.84;67.04;100036.63;5059125;28;19922;-53
2022/08/09 09:26:16;;;;;;;;;;;;;;;31.18;61.98;100031.38;5058061;28;20053;-52
2022/08/09 09:28:45;;;;;;;;;;;;;;;31.24;58.42;100026.25;5059163;28;19925;-54
2022/08/09 09:31:14;;;;;;;;;;;;;;;31.45;62.29;100025.94;5056633;28;20654;-52
2022/08/09 09:33:39;;;;;;;;;;;;;;;31.56;57.79;100023.97;5061205;28;19916;-52
2022/08/09 09:36:05;;;;;;;;;;;;;;;31.58;55.77;100028.13;5063396;28;19974;-54
2022/08/09 09:38:39;;;;;;;;;;;;;;;31.38;59.78;100032.00;5060878;28;19916;-53
2022/08/09 09:41:05;;;;;;;;;;;;;;;32.17;55.33;100030.03;5060578;28;20499;-52
2022/08/09 09:43:30;;;;;;;;;;;;;;;32.08;51.13;100030.00;5061485;28;19955;-52
2022/08/09 09:45:56;;;;;;;;;;;;;;;32.59;55.88;100027.25;5055586;28;19947;-51
2022/08/09 09:48:22;;;;;;;;;;;;;;;32.80;50.71;100024.09;5056320;28;20033;-53
2022/08/09 09:50:47;;;;;;;;;;;;;;;32.17;53.90;100022.84;5062219;28;20007;-54
2022/08/09 09:53:14;;;;;;;;;;;;;;;33.57;51.81;100023.56;5057442;28;19939;-55
2022/08/09 09:55:53;;;;;;;;;;;;;;;32.19;52.51;100028.03;5061248;28;19924;-53
2022/08/09 09:58:18;;;;;;;;;;;;;;;33.05;52.17;100021.38;5058633;28;19920;-53
2022/08/09 10:00:45;;;;;;;;;;;;;;;33.26;48.59;100021.69;5054955;28;19916;-52
2022/08/09 10:03:10;;;;;;;;;;;;;;;32.63;48.75;100017.09;5060166;28;19949;-54
2022/08/09 10:05:35;;;;;;;;;;;;;;;33.93;48.37;100031.94;5059466;28;19917;-55
2022/08/09 10:08:04;;;;;;;;;;;;;;;31.18;52.78;100032.22;5041827;28;19940;-53
2022/08/09 10:10:30;;;;;;;;;;;;;;;30.69;55.71;100034.50;5059480;28;19916;-54
2022/08/09 10:12:57;;;;;;;;;;;;;;;30.57;52.42;100035.75;5060156;28;21346;-54
2022/08/09 10:15:23;;;;;;;;;;;;;;;32.60;48.48;100028.09;5056884;28;19917;-54
2022/08/09 10:17:49;;;;;;;;;;;;;;;33.78;44.06;100022.16;5043481;28;20043;-55
2022/08/09 10:20:18;;;;;;;;;;;;;;;33.47;46.12;100014.94;5059218;28;19917;-54
2022/08/09 10:22:44;;;;;;;;;;;;;;;33.06;45.05;100012.41;5065416;28;19916;-54
2022/08/09 10:25:09;;;;;;;;;;;;;;;32.89;46.46;100020.41;5055621;28;19924;-56
2022/08/09 10:27:35;;;;;;;;;;;;;;;33.04;49.13;100019.72;5061971;28;19931;-55
2022/08/09 10:30:01;;;;;;;;;;;;;;;32.08;48.59;100024.66;5059767;28;20385;-56
2022/08/09 10:32:27;;;;;;;;;;;;;;;32.61;49.09;100021.75;5059141;28;20011;-55
2022/08/09 10:34:52;;;;;;;;;;;;;;;32.96;43.18;100022.38;5056905;28;21137;-56
2022/08/09 10:37:17;;;;;;;;;;;;;;;31.89;45.80;100014.28;5061053;28;19988;-55
2022/08/09 10:39:43;;;;;;;;;;;;;;;30.09;47.91;100029.78;5061179;28;19921;-55
2022/08/09 10:42:08;;;;;;;;;;;;;;;32.50;46.16;100021.06;5062939;28;19921;-56
2022/08/09 10:44:33;;;;;;;;;;;;;;;32.48;45.92;100020.41;5065828;28;20772;-55
2022/08/09 10:46:59;;;;;;;;;;;;;;;33.48;46.85;100021.94;5057850;28;19923;-55
2022/08/09 10:49:42;;;;;;;;;;;;;;;33.03;45.34;100018.88;5060184;28;20357;-55
2022/08/09 10:52:17;;;;;;;;;;;;;;;32.59;43.13;100005.06;5061929;28;19916;-55
2022/08/09 10:54:42;;;;;;;;;;;;;;;34.05;40.23;100016.34;5059419;28;19981;-55
2022/08/09 10:57:09;;;;;;;;;;;;;;;31.91;43.33;100012.28;5063350;28;19917;-55
2022/08/09 10:59:36;;;;;;;;;;;;;;;30.88;48.09;100006.06;5056233;28;20011;-56
2022/08/09 11:02:02;;;;;;;;;;;;;;;31.20;46.66;100002.78;5063479;28;20006;-55
2022/08/09 11:04:27;;;;;;;;;;;;;;;33.19;44.06;100007.38;5062313;28;20453;-55
2022/08/09 11:06:58;;;;;;;;;;;;;;;32.88;39.97;100016.06;5058394;28;20406;-55
2022/08/09 11:09:36;;;;;;;;;;;;;;;32.52;45.57;100028.91;5065446;28;19981;-55
2022/08/09 11:12:07;;;;;;;;;;;;;;;33.09;43.25;100022.72;5062082;28;19931;-54
2022/08/09 11:14:37;;;;;;;;;;;;;;;33.18;43.18;100023.53;5058731;28;19916;-55
2022/08/09 11:17:14;;;;;;;;;;;;;;;33.23;40.67;100024.72;5054474;28;19963;-55
2022/08/09 11:19:49;;;;;;;;;;;;;;;34.34;40.79;100028.22;5051448;28;19928;-55
2022/08/09 11:22:14;;;;;;;;;;;;;;;33.17;40.58;100020.03;5053942;28;19920;-56
2022/08/09 11:24:58;;;;;;;;;;;;;;;33.97;38.97;100015.56;5056290;28;19982;-56
2022/08/09 11:27:47;;;;;;;;;;;;;;;32.78;42.70;100011.91;5056444;28;20428;-56
2022/08/09 11:30:21;;;;;;;;;;;;;;;34.01;39.49;100009.69;5049190;28;20392;-56
2022/08/09 11:32:46;;;;;;;;;;;;;;;34.69;41.42;100004.53;5062795;28;20110;-56
2022/08/09 11:35:15;;;;;;;;;;;;;;;32.99;41.70;100011.38;5066661;28;19920;-56
2022/08/09 11:37:43;;;;;;;;;;;;;;;33.54;39.53;100006.06;5058897;28;20018;-56
2022/08/09 11:40:10;;;;;;;;;;;;;;;35.31;39.33;99990.88;5057536;28;19923;-58
2022/08/09 11:42:42;;;;;;;;;;;;;;;34.95;36.67;99993.44;5059744;28;20251;-56
2022/08/09 11:45:22;;;;;;;;;;;;;;;34.71;40.30;99997.16;5056290;28;20591;-56
2022/08/09 11:47:48;;;;;;;;;;;;;;;34.74;37.02;99983.44;5062495;28;19920;-56
2022/08/09 11:50:13;;;;;;;;;;;;;;;35.10;38.65;99985.41;5057966;28;19969;-56
2022/08/09 11:52:57;;;;;;;;;;;;;;;33.79;38.85;99992.63;5059377;28;19924;-56
2022/08/09 11:55:36;;;;;;;;;;;;;;;33.93;39.02;99991.03;5068260;28;19920;-56
2022/08/09 11:58:10;;;;;;;;;;;;;;;34.83;36.81;99995.75;5061592;28;20429;-56
2022/08/09 12:00:42;;;;;;;;;;;;;;;35.46;39.08;99984.69;5056423;28;19965;-56
2022/08/09 12:03:13;;;;;;;;;;;;;;;34.32;36.43;99987.44;5057371;28;20427;-57
2022/08/09 12:05:39;;;;;;;;;;;;;;;34.16;37.75;99994.56;5055613;28;19920;-56
2022/08/09 12:08:08;;;;;;;;;;;;;;;36.37;35.38;99977.03;5059089;28;20640;-56
2022/08/09 12:10:33;;;;;;;;;;;;;;;34.21;35.24;99985.19;5061113;28;19942;-57
2022/08/09 12:12:59;;;;;;;;;;;;;;;33.43;38.07;99992.25;5062241;28;19924;-57
2022/08/09 12:15:25;;;;;;;;;;;;;;;35.99;36.76;99985.31;5058738;28;20766;-57
2022/08/09 12:17:51;;;;;;;;;;;;;;;36.19;36.76;99986.34;5056825;28;20996;-57
2022/08/09 12:20:17;;;;;;;;;;;;;;;37.10;33.26;99982.16;5061687;28;19970;-57
2022/08/09 12:22:43;;;;;;;;;;;;;;;35.29;35.84;99978.69;5064064;28;19926;-57
2022/08/09 12:25:12;;;;;;;;;;;;;;;36.33;34.18;99965.03;5050789;28;19920;-57
2022/08/09 12:27:38;;;;;;;;;;;;;;;38.06;32.69;99966.81;5057276;28;19920;-56
2022/08/09 12:30:05;;;;;;;;;;;;;;;36.75;32.15;99963.31;5057473;28;20008;-56
2022/08/09 12:32:31;;;;;;;;;;;;;;;36.18;34.54;99957.91;5063619;28;20372;-56
2022/08/09 12:35:02;;;;;;;;;;;;;;;36.69;34.16;99967.59;5063663;28;19971;-54
2022/08/09 12:37:34;;;;;;;;;;;;;;;37.15;33.39;99956.34;5064251;28;20390;-56
2022/08/09 12:40:07;;;;;;;;;;;;;;;36.71;33.94;99956.69;5056516;28;20354;-56